Cornett, Texas
Current Conditions -  °F | °C
As of 12:15 AM on Monday 22 Dec 2014 (Local Time) from KOSA Reporting Station
Overcast Overcast  
Wind Chill: 50°   Ceiling: 3000
Heat Index: 50°   Visibility: 10mi
Dew Point: 46°   Wind: 7mph
Humidity: 85%   Direction: 150°SSE
Pressure: 29.81"   Gusts: NA
Location:  33.2006°N, 94.6977°W
Report Text: KOSA 220615Z AUTO 15006KT 10SM SCT021 BKN030 OVC040 10/08 A2981 RMK AO1 T01020077
Loading
Personal Weather Stations






























Interactive Weather Map New forecast layout! Learn more

10-Day Weather Forecast

Advertisements
Track Severe Weather on mobile